Time;durP1;ratioP1;P1;durP2;ratioP2;P2;SDS_P1;SDS_P2;PMS_P1;PMS_P2;Temp;Humidity;BMP_temperature;BMP_pressure;BME280_temperature;BME280_humidity;BME280_pressure;Samples;Min_cycle;Max_cycle;Signal;HPM_P1;HPM_P2
2022/07/18 00:03:03;;;;;;;0.90;0.90;;;17.40;92.70;;;;;;6164564;29;20275;-67
2022/07/18 00:06:10;;;;;;;0.80;0.80;;;17.50;92.90;;;;;;6165072;29;20286;-67
2022/07/18 00:09:17;;;;;;;0.70;0.70;;;17.40;93.50;;;;;;6164598;29;20294;-67
2022/07/18 00:12:22;;;;;;;1.33;0.90;;;17.40;93.20;;;;;;6164616;29;20271;-67
2022/07/18 00:15:28;;;;;;;5.15;0.90;;;17.40;94.60;;;;;;6183901;28;20298;-67
2022/07/18 00:18:33;;;;;;;0.80;0.80;;;17.30;94.40;;;;;;6188108;28;20277;-67
2022/07/18 00:21:38;;;;;;;4.18;1.55;;;17.40;94.80;;;;;;6188149;28;20466;-67
2022/07/18 00:24:45;;;;;;;1.15;1.15;;;17.40;94.00;;;;;;6188379;28;20274;-67
2022/07/18 00:27:51;;;;;;;0.77;0.77;;;17.40;94.20;;;;;;6187855;28;20278;-67
2022/07/18 00:30:56;;;;;;;0.90;0.90;;;17.40;94.40;;;;;;6188341;28;20278;-67
2022/07/18 00:34:02;;;;;;;0.80;0.80;;;17.30;94.60;;;;;;6188302;28;20273;-67
2022/07/18 00:37:08;;;;;;;0.70;0.70;;;17.30;94.30;;;;;;6187902;28;20553;-67
2022/07/18 00:40:14;;;;;;;1.00;1.00;;;17.30;94.30;;;;;;6188221;28;20282;-66
2022/07/18 00:43:20;;;;;;;0.80;0.80;;;17.30;94.00;;;;;;6188172;28;20375;-66
2022/07/18 00:46:29;;;;;;;1.00;1.00;;;17.30;94.40;;;;;;6188171;28;20278;-66
2022/07/18 00:49:35;;;;;;;0.90;0.90;;;17.20;94.10;;;;;;6187989;28;20290;-66
2022/07/18 00:52:41;;;;;;;0.80;0.80;;;17.30;94.50;;;;;;6187650;28;20270;-66
2022/07/18 00:55:47;;;;;;;1.17;1.10;;;17.30;94.60;;;;;;6187944;28;20278;-66
2022/07/18 00:58:52;;;;;;;2.50;1.15;;;17.30;95.50;;;;;;6189250;28;20274;-66
2022/07/18 01:01:57;;;;;;;1.00;1.00;;;17.20;95.30;;;;;;6192317;28;20553;-66
2022/07/18 01:05:02;;;;;;;1.33;1.23;;;17.20;95.30;;;;;;6183626;28;20262;-66
2022/07/18 01:08:10;;;;;;;1.15;1.15;;;17.20;95.00;;;;;;6168495;28;20274;-66
2022/07/18 01:11:16;;;;;;;1.85;1.00;;;17.10;95.40;;;;;;6168612;29;20477;-66
2022/07/18 01:14:22;;;;;;;0.90;0.90;;;17.10;94.90;;;;;;6168669;29;20679;-66
2022/07/18 01:17:28;;;;;;;3.78;3.47;;;17.10;95.40;;;;;;6168716;28;20275;-66
2022/07/18 01:20:40;;;;;;;3.35;3.15;;;17.10;95.60;;;;;;6168031;29;20279;-66
2022/07/18 01:23:45;;;;;;;1.50;1.50;;;17.10;95.30;;;;;;6168523;28;20366;-66
2022/07/18 01:26:51;;;;;;;1.10;1.10;;;17.00;95.70;;;;;;6167632;29;20339;-66
2022/07/18 01:29:56;;;;;;;1.38;0.90;;;17.10;95.80;;;;;;6168194;29;20617;-66
2022/07/18 01:33:03;;;;;;;0.93;0.93;;;17.10;95.10;;;;;;6168376;28;20562;-66
2022/07/18 01:36:11;;;;;;;0.73;0.73;;;17.10;96.10;;;;;;6167752;29;20554;-66
2022/07/18 01:39:17;;;;;;;1.67;0.90;;;17.10;96.60;;;;;;6168000;29;20283;-66
2022/07/18 01:42:22;;;;;;;1.00;1.00;;;17.10;95.70;;;;;;6167995;29;20279;-66
2022/07/18 01:45:28;;;;;;;0.80;0.80;;;17.10;95.50;;;;;;6167800;29;20274;-67
2022/07/18 01:48:34;;;;;;;1.10;1.10;;;17.20;96.70;;;;;;6167351;29;20275;-66
2022/07/18 01:51:41;;;;;;;0.93;0.93;;;17.20;96.70;;;;;;6167713;28;20294;-66
2022/07/18 01:54:46;;;;;;;1.20;1.20;;;17.20;96.30;;;;;;6167348;28;20274;-67
2022/07/18 01:57:51;;;;;;;1.67;1.20;;;17.20;96.40;;;;;;6167591;29;20274;-66
2022/07/18 02:00:57;;;;;;;1.20;1.20;;;17.20;96.60;;;;;;6167615;29;20278;-66
2022/07/18 02:04:02;;;;;;;2.45;1.40;;;17.20;96.80;;;;;;6167059;29;20278;-66
2022/07/18 02:07:09;;;;;;;1.50;1.50;;;17.20;96.00;;;;;;6167429;28;20278;-66
2022/07/18 02:10:17;;;;;;;1.40;1.40;;;17.20;97.00;;;;;;6166679;28;20286;-66
2022/07/18 02:13:22;;;;;;;1.88;1.55;;;17.20;96.90;;;;;;6170203;28;20435;-66
2022/07/18 02:16:28;;;;;;;2.00;1.30;;;17.20;97.30;;;;;;6191121;28;20270;-66
2022/07/18 02:19:34;;;;;;;1.35;1.35;;;17.10;97.40;;;;;;6190639;28;20281;-66
2022/07/18 02:22:41;;;;;;;1.95;0.95;;;17.00;97.50;;;;;;6190931;28;20274;-66
2022/07/18 02:25:47;;;;;;;1.20;1.20;;;17.00;97.70;;;;;;6190894;28;20274;-66
2022/07/18 02:28:51;;;;;;;1.20;1.20;;;17.00;97.50;;;;;;6190959;28;20278;-67
2022/07/18 02:31:57;;;;;;;1.05;1.05;;;17.00;97.70;;;;;;6190525;28;20293;-67
2022/07/18 02:35:02;;;;;;;1.45;1.08;;;16.90;98.20;;;;;;6190331;28;20289;-67
2022/07/18 02:38:10;;;;;;;1.15;1.15;;;16.90;98.10;;;;;;6190692;28;20273;-67
2022/07/18 02:41:15;;;;;;;1.17;1.10;;;16.90;98.50;;;;;;6173334;28;20279;-67
2022/07/18 02:44:20;;;;;;;1.10;1.10;;;16.80;98.80;;;;;;6190552;28;20279;-67
2022/07/18 02:47:25;;;;;;;1.10;1.10;;;16.80;98.90;;;;;;6190124;28;20444;-67
2022/07/18 02:50:31;;;;;;;3.20;1.20;;;16.80;98.60;;;;;;6190321;28;20295;-67
2022/07/18 02:53:37;;;;;;;1.00;1.00;;;16.90;98.90;;;;;;6190355;28;20561;-67
2022/07/18 02:56:43;;;;;;;0.95;0.95;;;16.80;99.20;;;;;;6190270;28;20273;-67
2022/07/18 02:59:48;;;;;;;1.00;1.00;;;16.80;99.30;;;;;;6190174;28;20470;-67
2022/07/18 03:02:53;;;;;;;1.10;1.10;;;16.70;99.50;;;;;;6190146;28;20274;-67
2022/07/18 03:05:58;;;;;;;1.00;1.00;;;16.70;99.50;;;;;;6173507;28;20267;-67
2022/07/18 03:09:05;;;;;;;1.88;1.10;;;16.60;99.90;;;;;;6166003;28;20468;-67
2022/07/18 03:12:12;;;;;;;1.08;1.08;;;16.70;99.90;;;;;;6166128;28;20630;-67
2022/07/18 03:15:18;;;;;;;1.63;1.20;;;16.70;99.80;;;;;;6166068;29;20298;-67
2022/07/18 03:18:24;;;;;;;1.30;1.17;;;16.60;99.70;;;;;;6165394;29;20270;-67
2022/07/18 03:21:30;;;;;;;0.85;0.85;;;16.70;99.80;;;;;;6165022;28;20278;-68
2022/07/18 03:24:36;;;;;;;1.08;1.00;;;16.60;99.90;;;;;;6165675;29;20279;-67
2022/07/18 03:27:41;;;;;;;1.20;1.20;;;16.60;99.90;;;;;;6165560;29;20274;-67
2022/07/18 03:30:47;;;;;;;1.60;1.50;;;16.60;99.90;;;;;;6165535;28;20294;-67
2022/07/18 03:33:52;;;;;;;3.50;1.40;;;16.50;99.90;;;;;;6165289;28;20270;-67
2022/07/18 03:36:57;;;;;;;1.15;1.10;;;16.50;99.90;;;;;;6164890;29;20279;-67
2022/07/18 03:40:06;;;;;;;1.08;1.02;;;16.60;99.90;;;;;;6165490;28;20279;-67
2022/07/18 03:43:13;;;;;;;7.32;1.40;;;16.70;99.90;;;;;;6165306;29;20278;-67
2022/07/18 03:46:18;;;;;;;2.72;1.20;;;16.80;99.90;;;;;;6165207;29;20278;-67
2022/07/18 03:49:24;;;;;;;3.25;1.20;;;16.80;99.90;;;;;;6163635;29;20456;-67
2022/07/18 03:52:29;;;;;;;1.17;1.10;;;16.80;99.90;;;;;;6164943;29;20478;-67
2022/07/18 03:55:36;;;;;;;1.20;1.20;;;16.90;99.90;;;;;;6164611;29;20433;-67
2022/07/18 03:58:42;;;;;;;2.15;1.30;;;17.00;99.90;;;;;;6165175;28;20271;-67
2022/07/18 04:01:47;;;;;;;1.17;1.17;;;17.00;99.90;;;;;;6163479;29;20301;-67
2022/07/18 04:04:53;;;;;;;1.00;1.00;;;17.10;99.90;;;;;;6164263;29;20550;-67
2022/07/18 04:07:58;;;;;;;2.72;1.20;;;17.10;99.90;;;;;;6164529;28;20273;-67
2022/07/18 04:11:05;;;;;;;1.30;1.30;;;17.20;99.90;;;;;;6164705;29;20294;-67
2022/07/18 04:14:10;;;;;;;2.60;1.30;;;17.20;99.90;;;;;;6174078;28;20301;-67
2022/07/18 04:17:15;;;;;;;1.85;1.00;;;17.30;99.90;;;;;;6188340;28;20274;-67
2022/07/18 04:20:22;;;;;;;1.10;1.10;;;17.20;99.90;;;;;;6188355;28;20561;-67
2022/07/18 04:23:27;;;;;;;6.07;1.65;;;17.20;99.90;;;;;;6188383;28;20332;-67
2022/07/18 04:26:34;;;;;;;1.23;1.23;;;17.20;99.90;;;;;;6187930;28;20273;-67
2022/07/18 04:29:40;;;;;;;1.50;1.20;;;17.30;99.90;;;;;;6187739;28;20273;-67
2022/07/18 04:32:45;;;;;;;1.05;1.05;;;17.30;99.90;;;;;;6187925;28;20298;-67
2022/07/18 04:35:57;;;;;;;1.30;1.30;;;17.30;99.90;;;;;;6187727;28;20274;-67
2022/07/18 04:39:02;;;;;;;1.55;1.13;;;17.40;99.90;;;;;;6188204;28;20269;-67
2022/07/18 04:42:09;;;;;;;2.70;1.30;;;17.30;99.90;;;;;;6188153;28;20277;-67
2022/07/18 04:45:15;;;;;;;2.97;1.45;;;17.40;99.90;;;;;;6187742;28;20270;-67
2022/07/18 04:48:20;;;;;;;6.90;1.30;;;17.50;99.90;;;;;;6188019;28;20273;-67
2022/07/18 04:51:25;;;;;;;1.63;1.20;;;17.40;99.90;;;;;;6170567;28;20277;-67
2022/07/18 04:54:30;;;;;;;1.48;1.48;;;17.50;99.90;;;;;;6188010;28;20273;-67
2022/07/18 04:57:37;;;;;;;1.70;1.60;;;17.60;99.90;;;;;;6187692;28;20273;-67
2022/07/18 05:00:42;;;;;;;1.67;1.30;;;17.70;99.90;;;;;;6187581;28;20273;-67
2022/07/18 05:03:48;;;;;;;1.65;1.60;;;17.70;99.90;;;;;;6187693;28;20277;-67
2022/07/18 05:06:53;;;;;;;7.75;1.83;;;17.80;99.90;;;;;;6164120;28;20270;-68
2022/07/18 05:09:58;;;;;;;2.70;2.13;;;17.90;99.90;;;;;;6163905;29;20274;-67
2022/07/18 05:13:05;;;;;;;4.57;1.90;;;17.90;99.90;;;;;;6163564;28;20298;-67
2022/07/18 05:16:11;;;;;;;3.83;1.77;;;18.00;99.90;;;;;;6163903;29;20270;-67
2022/07/18 05:19:16;;;;;;;2.17;1.98;;;18.10;99.90;;;;;;6163346;29;20271;-67
2022/07/18 05:22:22;;;;;;;2.58;2.30;;;18.20;99.90;;;;;;6163790;29;20278;-67
2022/07/18 05:25:27;;;;;;;2.50;2.30;;;18.30;99.90;;;;;;6163946;28;20275;-67
2022/07/18 05:28:33;;;;;;;3.08;2.30;;;18.30;99.90;;;;;;6163616;28;20279;-67
2022/07/18 05:31:38;;;;;;;3.53;2.30;;;18.30;99.90;;;;;;6163252;29;20578;-67
2022/07/18 05:34:44;;;;;;;5.38;2.20;;;18.30;99.90;;;;;;6163213;29;20298;-67
2022/07/18 05:37:49;;;;;;;5.03;2.40;;;18.30;99.90;;;;;;6163319;29;20277;-67
2022/07/18 05:40:54;;;;;;;11.50;2.95;;;18.40;99.90;;;;;;6163291;29;20276;-67
2022/07/18 05:44:01;;;;;;;2.85;2.13;;;18.50;99.90;;;;;;6162767;28;20279;-67
2022/07/18 05:47:07;;;;;;;4.38;2.13;;;18.60;99.90;;;;;;6167975;29;20272;-68
2022/07/18 05:50:12;;;;;;;5.93;2.72;;;18.80;99.90;;;;;;6167544;29;20454;-67
2022/07/18 05:53:18;;;;;;;3.10;2.25;;;18.90;99.90;;;;;;6167613;29;20294;-67
2022/07/18 05:56:23;;;;;;;4.25;2.17;;;19.10;99.90;;;;;;6167277;29;20462;-67
2022/07/18 05:59:30;;;;;;;8.88;2.47;;;19.30;99.90;;;;;;6167295;28;20278;-67
2022/07/18 06:02:36;;;;;;;4.80;2.40;;;19.30;99.90;;;;;;6167619;28;20282;-66
2022/07/18 06:05:41;;;;;;;4.97;2.92;;;19.50;99.90;;;;;;6167669;28;20270;-67
2022/07/18 06:08:47;;;;;;;7.18;2.40;;;19.60;99.90;;;;;;6167337;28;20271;-67
2022/07/18 06:11:53;;;;;;;2.88;2.53;;;19.70;99.90;;;;;;6166715;28;20270;-67
2022/07/18 06:15:00;;;;;;;6.10;2.53;;;19.80;99.90;;;;;;6182405;28;20310;-67
2022/07/18 06:18:05;;;;;;;2.53;2.35;;;19.90;99.90;;;;;;6190973;28;20274;-67
2022/07/18 06:21:11;;;;;;;2.97;2.53;;;19.80;99.90;;;;;;6190306;28;20273;-67
2022/07/18 06:24:16;;;;;;;6.57;2.88;;;19.70;99.90;;;;;;6190819;28;20282;-66
2022/07/18 06:27:22;;;;;;;3.88;2.75;;;19.70;99.90;;;;;;6190245;28;20278;-67
2022/07/18 06:30:28;;;;;;;4.88;2.60;;;19.90;99.90;;;;;;6190536;28;20293;-67
2022/07/18 06:33:34;;;;;;;7.18;3.55;;;20.10;99.90;;;;;;6190442;28;20576;-67
2022/07/18 06:36:39;;;;;;;7.63;2.60;;;20.20;99.90;;;;;;6190568;28;20273;-66
2022/07/18 06:39:45;;;;;;;4.13;2.83;;;20.30;99.90;;;;;;6189987;28;20274;-67
2022/07/18 06:42:50;;;;;;;4.72;2.83;;;20.40;99.90;;;;;;6189966;28;20278;-67
2022/07/18 06:45:57;;;;;;;7.07;3.22;;;20.50;99.90;;;;;;6189875;28;20589;-66
2022/07/18 06:49:03;;;;;;;3.60;2.70;;;20.60;99.90;;;;;;6190159;28;20273;-67
2022/07/18 06:52:11;;;;;;;5.10;2.95;;;20.70;99.90;;;;;;6190105;28;20580;-67
2022/07/18 06:55:16;;;;;;;6.72;3.30;;;20.80;99.90;;;;;;6189600;28;20294;-67
2022/07/18 06:58:22;;;;;;;5.47;2.55;;;20.80;99.90;;;;;;6189182;28;20293;-66
2022/07/18 07:01:28;;;;;;;5.80;3.22;;;20.80;99.90;;;;;;6190118;28;20274;-67
2022/07/18 07:04:35;;;;;;;4.78;2.75;;;20.80;99.90;;;;;;6184725;28;20263;-67
2022/07/18 07:07:40;;;;;;;2.95;2.67;;;20.80;99.90;;;;;;6166111;28;20275;-67
2022/07/18 07:10:51;;;;;;;4.18;2.85;;;20.80;99.90;;;;;;6166062;28;20270;-69
2022/07/18 07:13:56;;;;;;;4.68;2.80;;;20.80;99.90;;;;;;6165569;28;20491;-67
2022/07/18 07:17:03;;;;;;;5.45;3.40;;;20.70;99.90;;;;;;6164519;28;20557;-67
2022/07/18 07:20:13;;;;;;;4.53;2.58;;;20.90;99.90;;;;;;6165385;29;20467;-67
2022/07/18 07:23:18;;;;;;;8.70;3.40;;;21.00;99.90;;;;;;6165241;29;20270;-67
2022/07/18 07:26:23;;;;;;;4.28;3.10;;;21.20;99.90;;;;;;6165355;28;20311;-66
2022/07/18 07:29:29;;;;;;;5.53;3.10;;;21.00;99.90;;;;;;6164974;29;20442;-67
2022/07/18 07:32:36;;;;;;;3.50;2.80;;;20.90;99.90;;;;;;6164938;29;20274;-67
2022/07/18 07:35:41;;;;;;;4.85;3.03;;;21.00;99.90;;;;;;6165067;28;20294;-67
2022/07/18 07:38:47;;;;;;;3.75;2.95;;;21.10;99.90;;;;;;6165267;28;20278;-66
2022/07/18 07:41:52;;;;;;;5.88;2.92;;;21.30;99.60;;;;;;6165166;29;20270;-66
2022/07/18 07:44:57;;;;;;;5.50;3.05;;;21.40;99.90;;;;;;6165227;29;20280;-66
2022/07/18 07:48:05;;;;;;;3.53;3.22;;;21.40;99.90;;;;;;6164743;28;20275;-66
2022/07/18 07:51:11;;;;;;;8.48;3.30;;;21.60;99.90;;;;;;6164704;29;20459;-66
2022/07/18 07:54:16;;;;;;;6.78;3.15;;;21.80;99.70;;;;;;6164574;28;20290;-68
2022/07/18 07:57:21;;;;;;;8.98;3.00;;;21.70;98.90;;;;;;6164952;28;20274;-67
2022/07/18 08:00:28;;;;;;;3.30;2.55;;;21.60;99.40;;;;;;6164661;29;20275;-67
2022/07/18 08:03:35;;;;;;;8.15;3.20;;;21.40;99.20;;;;;;6164761;29;20566;-67
2022/07/18 08:06:40;;;;;;;3.95;2.75;;;21.30;99.40;;;;;;6164774;28;20266;-67
2022/07/18 08:09:45;;;;;;;3.03;2.72;;;21.30;99.80;;;;;;6164424;28;20274;-67
2022/07/18 08:12:50;;;;;;;2.63;2.53;;;21.50;99.90;;;;;;6164346;29;20271;-67
2022/07/18 08:15:56;;;;;;;4.35;2.95;;;21.50;99.60;;;;;;6187970;28;20305;-67
2022/07/18 08:19:02;;;;;;;3.00;2.80;;;21.50;99.60;;;;;;6170927;28;20273;-67
2022/07/18 08:22:09;;;;;;;5.32;3.20;;;21.40;99.40;;;;;;6188076;28;20277;-67
2022/07/18 08:25:15;;;;;;;6.22;2.97;;;21.30;99.70;;;;;;6188230;28;20282;-67
2022/07/18 08:28:20;;;;;;;7.38;3.10;;;21.30;99.90;;;;;;6187794;28;20273;-67
2022/07/18 08:31:25;;;;;;;5.97;2.70;;;21.40;99.60;;;;;;6187725;28;20274;-67
2022/07/18 08:34:34;;;;;;;3.75;2.90;;;21.30;99.20;;;;;;6188110;28;20286;-67
2022/07/18 08:37:39;;;;;;;3.55;2.85;;;21.40;98.90;;;;;;6188160;28;20273;-67
2022/07/18 08:40:48;;;;;;;5.70;2.72;;;21.40;99.00;;;;;;6187746;28;20273;-67
2022/07/18 08:43:54;;;;;;;3.58;2.83;;;21.50;99.00;;;;;;6188015;28;20274;-67
2022/07/18 08:47:00;;;;;;;7.80;3.20;;;21.40;99.10;;;;;;6187617;28;20277;-67
2022/07/18 08:50:09;;;;;;;4.53;3.05;;;21.50;98.90;;;;;;6187971;28;20270;-67
2022/07/18 08:53:19;;;;;;;3.20;2.80;;;21.50;98.60;;;;;;6188016;28;20274;-67
2022/07/18 08:56:24;;;;;;;5.07;2.60;;;21.60;99.00;;;;;;6187679;28;20297;-67
2022/07/18 08:59:29;;;;;;;5.70;3.05;;;21.70;99.20;;;;;;6187709;28;20273;-68
2022/07/18 09:02:35;;;;;;;3.08;2.50;;;21.60;98.30;;;;;;6187247;28;20557;-67
2022/07/18 09:05:42;;;;;;;6.32;2.50;;;21.70;97.30;;;;;;6173185;28;20290;-67
2022/07/18 09:08:59;;;;;;;3.00;2.67;;;21.70;97.30;;;;;;6163963;28;20274;-68
2022/07/18 09:12:09;;;;;;;3.00;2.55;;;21.80;96.80;;;;;;6163937;29;20275;-68
2022/07/18 09:15:15;;;;;;;3.17;2.95;;;21.90;97.20;;;;;;6163523;28;20346;-68
2022/07/18 09:18:28;;;;;;;2.58;2.45;;;21.90;97.10;;;;;;6163912;28;20574;-68
2022/07/18 09:21:42;;;;;;;2.65;2.45;;;21.70;97.00;;;;;;6168217;29;20275;-67
2022/07/18 09:24:54;;;;;;;2.88;2.53;;;21.90;97.00;;;;;;6167750;29;20278;-67
2022/07/18 09:28:01;;;;;;;2.97;2.67;;;21.90;97.10;;;;;;6168142;29;20278;-67
2022/07/18 09:31:19;;;;;;;5.45;2.35;;;21.90;97.10;;;;;;6168313;28;20274;-67
2022/07/18 09:34:34;;;;;;;3.15;2.58;;;22.00;96.90;;;;;;6167929;29;20275;-67
2022/07/18 09:37:41;;;;;;;3.05;2.40;;;21.90;96.60;;;;;;6167981;29;20299;-67
2022/07/18 09:40:48;;;;;;;3.25;2.42;;;21.90;96.30;;;;;;6167897;29;20585;-67
2022/07/18 09:43:53;;;;;;;4.53;2.30;;;22.00;95.90;;;;;;6167912;29;20278;-67
2022/07/18 09:47:04;;;;;;;2.75;2.50;;;22.00;95.80;;;;;;6167766;29;20274;-67
2022/07/18 09:50:22;;;;;;;2.40;2.30;;;22.00;96.00;;;;;;6167773;29;20283;-67
2022/07/18 09:53:32;;;;;;;2.20;2.05;;;22.10;96.20;;;;;;6167278;29;20294;-67
2022/07/18 09:56:42;;;;;;;2.85;2.10;;;22.10;95.50;;;;;;6167418;29;20290;-67
2022/07/18 09:59:47;;;;;;;5.00;2.00;;;22.10;95.90;;;;;;6167467;29;20585;-66
2022/07/18 10:02:53;;;;;;;2.38;1.92;;;22.10;95.90;;;;;;6167406;29;20379;-68
2022/07/18 10:05:59;;;;;;;2.65;2.45;;;22.10;95.30;;;;;;6167469;29;20276;-67
2022/07/18 10:09:06;;;;;;;11.55;2.20;;;22.00;95.40;;;;;;6166757;28;20279;-67
2022/07/18 10:12:12;;;;;;;1.92;1.83;;;22.00;95.30;;;;;;6166586;28;20270;-67
2022/07/18 10:15:17;;;;;;;2.25;2.15;;;22.10;95.20;;;;;;6184408;28;20302;-67
2022/07/18 10:18:25;;;;;;;2.08;1.98;;;22.10;94.90;;;;;;6190350;28;20293;-67
2022/07/18 10:21:31;;;;;;;3.45;2.20;;;22.10;94.90;;;;;;6190791;28;20275;-67
2022/07/18 10:24:40;;;;;;;3.75;2.15;;;22.00;94.50;;;;;;6190580;28;20269;-67
2022/07/18 10:27:50;;;;;;;3.33;1.95;;;22.00;94.30;;;;;;6190219;28;20467;-67
2022/07/18 10:30:56;;;;;;;2.95;2.75;;;22.10;94.90;;;;;;6190586;28;20463;-67
2022/07/18 10:34:11;;;;;;;4.68;2.10;;;22.10;94.30;;;;;;6190956;28;20269;-68
2022/07/18 10:37:25;;;;;;;2.35;2.13;;;22.20;93.40;;;;;;6190064;28;20293;-67
2022/07/18 10:40:32;;;;;;;4.47;2.03;;;22.30;92.90;;;;;;6190250;28;20278;-67
2022/07/18 10:43:45;;;;;;;2.00;1.92;;;22.40;92.20;;;;;;6172773;28;20281;-68
2022/07/18 10:47:08;;;;;;;4.10;2.20;;;22.30;92.60;;;;;;6190290;28;20278;-67
2022/07/18 10:50:13;;;;;;;2.20;2.10;;;22.40;93.30;;;;;;6190193;28;20270;-68
2022/07/18 10:53:18;;;;;;;2.40;2.15;;;22.40;93.70;;;;;;6190030;28;20279;-67
2022/07/18 10:57:10;;;;;;;2.72;2.30;;;22.30;94.20;;;;;;6189807;28;20298;-67
2022/07/18 11:00:18;;;;;;;5.05;4.15;;;22.40;94.60;;;;;;6189789;28;20279;-67
2022/07/18 11:03:30;;;;;;;3.65;2.58;;;22.30;93.00;;;;;;6189353;28;20273;-67
2022/07/18 11:06:56;;;;;;;3.42;2.35;;;22.20;93.30;;;;;;6167843;28;20271;-67
2022/07/18 11:10:02;;;;;;;4.18;2.17;;;22.20;92.60;;;;;;6165496;29;20274;-67
2022/07/18 11:13:25;;;;;;;1.80;1.77;;;22.20;93.10;;;;;;6165371;29;20561;-67
2022/07/18 11:16:32;;;;;;;3.85;2.13;;;22.20;93.50;;;;;;6165315;29;20278;-66
2022/07/18 11:19:38;;;;;;;2.70;1.83;;;22.20;93.30;;;;;;6164118;28;20277;-68
2022/07/18 11:22:43;;;;;;;2.20;1.92;;;22.30;93.00;;;;;;6165394;28;20336;-68
2022/07/18 11:25:56;;;;;;;3.50;2.10;;;22.30;92.00;;;;;;6165797;28;20275;-68
2022/07/18 11:29:07;;;;;;;2.20;2.00;;;22.20;92.30;;;;;;6165623;29;20274;-68
2022/07/18 11:32:22;;;;;;;1.90;1.80;;;22.20;93.00;;;;;;6164998;29;20318;-68
2022/07/18 11:35:27;;;;;;;2.13;2.05;;;22.20;92.70;;;;;;6165408;29;20274;-68
2022/07/18 11:38:33;;;;;;;2.13;2.03;;;22.20;93.30;;;;;;6165103;28;20294;-68
2022/07/18 11:41:40;;;;;;;2.67;2.47;;;22.20;92.20;;;;;;6164716;28;20274;-68
2022/07/18 11:44:46;;;;;;;2.33;2.10;;;22.20;92.50;;;;;;6164615;29;20278;-68
2022/07/18 11:47:53;;;;;;;1.85;1.75;;;22.30;92.30;;;;;;6164703;29;20461;-68
2022/07/18 11:50:58;;;;;;;2.25;2.00;;;22.20;91.20;;;;;;6164952;29;20286;-68
2022/07/18 11:54:05;;;;;;;2.25;1.80;;;22.30;90.90;;;;;;6164902;29;20275;-68
2022/07/18 11:57:10;;;;;;;1.92;1.58;;;22.30;90.60;;;;;;6164752;29;20298;-68
2022/07/18 12:00:20;;;;;;;2.25;2.03;;;22.40;92.00;;;;;;6164588;28;20278;-68
2022/07/18 12:03:27;;;;;;;2.50;2.00;;;22.60;91.90;;;;;;6164726;29;20270;-68
2022/07/18 12:06:32;;;;;;;3.30;1.80;;;22.50;92.00;;;;;;6164899;29;20421;-68
2022/07/18 12:09:37;;;;;;;5.22;2.80;;;22.60;92.20;;;;;;6164543;29;20286;-68
2022/07/18 12:12:43;;;;;;;2.95;2.80;;;22.60;92.40;;;;;;6164164;28;20274;-68
2022/07/18 12:15:49;;;;;;;2.83;2.63;;;22.50;93.20;;;;;;6186088;28;20301;-68
2022/07/18 12:18:57;;;;;;;3.92;2.65;;;22.60;92.40;;;;;;6188083;28;20302;-68
2022/07/18 12:22:08;;;;;;;5.50;2.70;;;22.40;92.60;;;;;;6188098;28;20270;-68
2022/07/18 12:25:14;;;;;;;6.35;2.70;;;22.40;92.80;;;;;;6188058;28;20273;-67
2022/07/18 12:28:21;;;;;;;2.40;2.30;;;22.40;94.00;;;;;;6187615;28;20517;-67
2022/07/18 12:31:42;;;;;;;5.10;2.60;;;22.30;93.80;;;;;;6188055;28;20273;-67
2022/07/18 12:34:56;;;;;;;4.65;2.50;;;22.30;93.50;;;;;;6187911;28;20274;-67
2022/07/18 12:38:03;;;;;;;4.13;2.55;;;22.30;92.70;;;;;;6187723;28;20480;-67
2022/07/18 12:41:09;;;;;;;9.27;3.10;;;22.40;92.90;;;;;;6188128;28;20270;-67
2022/07/18 12:44:15;;;;;;;3.88;2.83;;;22.50;93.10;;;;;;6187639;28;20273;-67
2022/07/18 12:47:21;;;;;;;3.38;2.50;;;22.40;93.00;;;;;;6187514;28;20278;-67
2022/07/18 12:50:27;;;;;;;4.95;2.20;;;22.50;93.00;;;;;;6187472;28;20273;-67
2022/07/18 12:53:35;;;;;;;2.53;2.42;;;22.70;92.50;;;;;;6188639;28;20273;-67
2022/07/18 12:56:40;;;;;;;8.27;2.90;;;22.80;92.00;;;;;;6192756;28;20274;-67
2022/07/18 12:59:46;;;;;;;2.35;2.22;;;22.80;92.00;;;;;;6175131;28;20297;-67
2022/07/18 13:02:55;;;;;;;2.13;2.00;;;22.90;91.50;;;;;;6192576;28;20274;-67
2022/07/18 13:06:01;;;;;;;3.05;2.22;;;22.90;91.50;;;;;;6175790;28;20266;-67
2022/07/18 13:09:06;;;;;;;2.22;1.95;;;22.80;91.10;;;;;;6168279;29;20274;-67
2022/07/18 13:12:11;;;;;;;2.40;2.30;;;23.00;91.30;;;;;;6168330;28;20569;-67
2022/07/18 13:15:20;;;;;;;1.95;1.90;;;23.10;91.30;;;;;;6168351;28;20298;-67
2022/07/18 13:18:26;;;;;;;2.45;2.25;;;23.10;91.10;;;;;;6168365;29;20297;-67
2022/07/18 13:21:32;;;;;;;2.78;2.20;;;23.10;90.80;;;;;;6167975;29;20278;-67
2022/07/18 13:24:38;;;;;;;3.42;2.13;;;23.20;91.20;;;;;;6168475;28;20271;-67
2022/07/18 13:27:43;;;;;;;2.22;2.13;;;23.30;91.40;;;;;;6168402;28;20558;-67
2022/07/18 13:30:48;;;;;;;2.00;2.00;;;23.40;90.70;;;;;;6168080;29;20562;-67
2022/07/18 13:33:55;;;;;;;4.05;2.55;;;23.40;90.60;;;;;;6167057;29;20282;-67
2022/07/18 13:37:00;;;;;;;2.05;2.05;;;23.40;90.30;;;;;;6168063;28;20279;-67
2022/07/18 13:40:08;;;;;;;2.30;2.20;;;23.40;90.70;;;;;;6167503;28;20293;-67
2022/07/18 13:43:15;;;;;;;2.35;2.20;;;23.40;90.10;;;;;;6167376;29;20283;-66
2022/07/18 13:46:20;;;;;;;2.17;1.92;;;23.40;90.80;;;;;;6167118;29;20577;-66
2022/07/18 13:49:26;;;;;;;2.67;2.45;;;23.50;90.80;;;;;;6167528;29;20282;-66
2022/07/18 13:52:31;;;;;;;4.97;2.60;;;23.50;90.50;;;;;;6167673;28;20303;-66
2022/07/18 13:55:37;;;;;;;2.33;2.22;;;23.60;90.60;;;;;;6167814;28;20274;-67
2022/07/18 13:58:42;;;;;;;2.50;2.20;;;23.60;90.60;;;;;;6167491;29;20298;-67
2022/07/18 14:01:49;;;;;;;2.38;2.30;;;23.60;90.30;;;;;;6167261;28;20471;-67
2022/07/18 14:04:56;;;;;;;2.42;2.33;;;23.60;90.40;;;;;;6166101;28;20272;-67
2022/07/18 14:08:16;;;;;;;2.83;2.70;;;23.50;90.70;;;;;;6167140;28;20278;-67
2022/07/18 14:11:21;;;;;;;4.85;2.67;;;23.40;90.90;;;;;;6166727;28;20282;-67
2022/07/18 14:14:26;;;;;;;5.03;2.78;;;23.20;91.10;;;;;;6169933;28;20302;-67
2022/07/18 14:17:33;;;;;;;3.28;2.42;;;23.10;91.80;;;;;;6190915;28;20278;-67
2022/07/18 14:20:40;;;;;;;2.60;2.08;;;23.10;91.80;;;;;;6190577;28;20293;-66
2022/07/18 14:23:46;;;;;;;2.30;2.20;;;23.10;91.00;;;;;;6190895;28;20278;-67
2022/07/18 14:26:53;;;;;;;3.85;1.85;;;23.00;90.50;;;;;;6190700;28;20293;-67
2022/07/18 14:29:59;;;;;;;1.60;1.60;;;23.10;91.30;;;;;;6190722;28;20269;-67
2022/07/18 14:33:04;;;;;;;1.80;1.80;;;23.30;90.40;;;;;;6190342;28;20274;-67
2022/07/18 14:36:16;;;;;;;2.15;1.77;;;23.60;89.20;;;;;;6190296;28;20586;-67
2022/07/18 14:39:21;;;;;;;1.65;1.65;;;23.80;87.50;;;;;;6190208;28;20482;-67
2022/07/18 14:42:27;;;;;;;1.60;1.60;;;23.90;86.60;;;;;;6190514;28;20275;-67
2022/07/18 14:45:32;;;;;;;1.50;1.50;;;24.00;87.10;;;;;;6190418;28;20278;-67
2022/07/18 14:48:52;;;;;;;2.15;1.63;;;24.00;87.60;;;;;;6190250;28;20561;-67
2022/07/18 14:52:00;;;;;;;1.67;1.67;;;24.10;86.40;;;;;;6189883;28;20282;-66
2022/07/18 14:55:08;;;;;;;1.60;1.55;;;24.00;87.30;;;;;;6190004;28;20462;-67
2022/07/18 14:58:13;;;;;;;1.48;1.48;;;24.30;88.60;;;;;;6189663;28;20274;-67
2022/07/18 15:01:19;;;;;;;2.05;1.58;;;24.50;85.20;;;;;;6190065;28;20298;-68
2022/07/18 15:04:24;;;;;;;1.65;1.60;;;24.50;85.80;;;;;;6186145;28;20262;-67
2022/07/18 15:07:31;;;;;;;1.50;1.50;;;24.20;87.10;;;;;;6165576;29;20275;-67
2022/07/18 15:10:37;;;;;;;2.28;1.70;;;24.10;86.90;;;;;;6166010;29;20282;-67
2022/07/18 15:13:42;;;;;;;1.70;1.70;;;24.00;86.60;;;;;;6166294;28;20274;-67
2022/07/18 15:16:47;;;;;;;1.65;1.65;;;23.70;88.30;;;;;;6164428;28;20303;-67
2022/07/18 15:19:53;;;;;;;2.08;1.83;;;23.50;89.30;;;;;;6165275;29;20294;-67
2022/07/18 15:22:59;;;;;;;2.35;2.22;;;23.50;89.00;;;;;;6165791;28;20431;-67
2022/07/18 15:26:05;;;;;;;2.10;2.05;;;23.40;89.90;;;;;;6165575;29;20432;-67
2022/07/18 15:29:12;;;;;;;7.35;2.00;;;23.30;90.10;;;;;;6165534;29;20270;-67
2022/07/18 15:32:18;;;;;;;3.60;2.13;;;23.10;93.10;;;;;;6165494;29;20278;-67
2022/07/18 15:35:23;;;;;;;3.90;2.67;;;22.50;95.70;;;;;;6164978;29;20290;-67
2022/07/18 15:38:37;;;;;;;2.85;2.47;;;22.40;97.80;;;;;;6358192;27;20973;-67
2022/07/18 15:41:42;;;;;;;6.55;2.88;;;22.10;98.60;;;;;;6333153;28;20561;-67
2022/07/18 15:44:48;;;;;;;3.58;2.72;;;21.80;98.60;;;;;;6332707;28;20269;-67
2022/07/18 15:47:53;;;;;;;4.03;3.53;;;21.80;99.90;;;;;;6332565;28;20278;-67
2022/07/18 15:50:59;;;;;;;3.63;3.17;;;21.70;99.90;;;;;;6332812;28;20274;-67
2022/07/18 15:54:06;;;;;;;3.05;2.85;;;21.60;99.90;;;;;;6332349;28;20534;-67
2022/07/18 15:57:11;;;;;;;3.75;3.40;;;21.80;99.90;;;;;;6332546;28;20290;-66
2022/07/18 16:00:17;;;;;;;3.10;3.00;;;21.60;99.90;;;;;;6332159;28;20290;-67
2022/07/18 16:03:22;;;;;;;3.10;2.95;;;21.60;99.90;;;;;;6332173;28;20538;-67
2022/07/18 16:06:27;;;;;;;3.90;3.17;;;21.50;99.90;;;;;;6332444;28;20269;-67
2022/07/18 16:09:34;;;;;;;3.28;3.05;;;21.60;99.90;;;;;;6331837;28;20274;-66
2022/07/18 16:12:39;;;;;;;3.17;2.97;;;21.70;99.90;;;;;;6331613;28;20270;-67
2022/07/18 16:15:45;;;;;;;3.40;3.10;;;21.80;99.90;;;;;;6331758;28;20269;-67